sensor_id;sensor_type;location;lat;lon;timestamp;P1;durP1;ratioP1;P2;durP2;ratioP2
73563;SDS011;61834;50.196;6.454;2022-09-09T00:00:11;1.48;;;0.60;;
73563;SDS011;61834;50.196;6.454;2022-09-09T00:02:46;1.02;;;0.50;;
73563;SDS011;61834;50.196;6.454;2022-09-09T00:05:39;1.00;;;0.60;;
73563;SDS011;61834;50.196;6.454;2022-09-09T00:09:15;1.05;;;0.40;;
73563;SDS011;61834;50.196;6.454;2022-09-09T00:11:13;1.05;;;0.63;;
73563;SDS011;61834;50.196;6.454;2022-09-09T00:13:48;1.15;;;0.47;;
73563;SDS011;61834;50.196;6.454;2022-09-09T00:16:24;0.73;;;0.52;;
73563;SDS011;61834;50.196;6.454;2022-09-09T00:19:06;1.33;;;0.95;;
73563;SDS011;61834;50.196;6.454;2022-09-09T00:21:43;1.50;;;0.60;;
73563;SDS011;61834;50.196;6.454;2022-09-09T00:24:24;1.40;;;0.50;;
73563;SDS011;61834;50.196;6.454;2022-09-09T00:27:21;0.93;;;0.60;;
73563;SDS011;61834;50.196;6.454;2022-09-09T00:32:36;0.93;;;0.60;;
73563;SDS011;61834;50.196;6.454;2022-09-09T00:35:49;0.85;;;0.40;;
73563;SDS011;61834;50.196;6.454;2022-09-09T00:38:14;1.23;;;0.60;;
73563;SDS011;61834;50.196;6.454;2022-09-09T00:40:53;0.63;;;0.40;;
73563;SDS011;61834;50.196;6.454;2022-09-09T00:49:50;1.27;;;0.60;;
73563;SDS011;61834;50.196;6.454;2022-09-09T00:57:35;1.52;;;0.55;;
73563;SDS011;61834;50.196;6.454;2022-09-09T01:00:18;1.05;;;0.50;;
73563;SDS011;61834;50.196;6.454;2022-09-09T01:05:33;1.08;;;0.55;;
73563;SDS011;61834;50.196;6.454;2022-09-09T01:08:09;1.73;;;0.50;;
73563;SDS011;61834;50.196;6.454;2022-09-09T01:10:58;1.63;;;0.60;;
73563;SDS011;61834;50.196;6.454;2022-09-09T01:13:31;2.13;;;0.40;;
73563;SDS011;61834;50.196;6.454;2022-09-09T01:16:03;0.85;;;0.40;;
73563;SDS011;61834;50.196;6.454;2022-09-09T01:18:35;0.68;;;0.50;;
73563;SDS011;61834;50.196;6.454;2022-09-09T01:26:46;0.50;;;0.40;;
73563;SDS011;61834;50.196;6.454;2022-09-09T01:29:22;1.23;;;0.57;;
73563;SDS011;61834;50.196;6.454;2022-09-09T01:31:53;0.60;;;0.45;;
73563;SDS011;61834;50.196;6.454;2022-09-09T01:34:24;3.47;;;0.60;;
73563;SDS011;61834;50.196;6.454;2022-09-09T01:36:55;0.60;;;0.47;;
73563;SDS011;61834;50.196;6.454;2022-09-09T01:39:22;0.98;;;0.43;;
73563;SDS011;61834;50.196;6.454;2022-09-09T01:41:56;1.17;;;0.55;;
73563;SDS011;61834;50.196;6.454;2022-09-09T01:44:22;0.70;;;0.50;;
73563;SDS011;61834;50.196;6.454;2022-09-09T01:46:49;0.85;;;0.50;;
73563;SDS011;61834;50.196;6.454;2022-09-09T01:49:17;0.60;;;0.50;;
73563;SDS011;61834;50.196;6.454;2022-09-09T01:51:44;1.38;;;0.60;;
73563;SDS011;61834;50.196;6.454;2022-09-09T01:54:13;0.80;;;0.40;;
73563;SDS011;61834;50.196;6.454;2022-09-09T02:02:24;0.52;;;0.40;;
73563;SDS011;61834;50.196;6.454;2022-09-09T02:10:20;0.40;;;0.40;;
73563;SDS011;61834;50.196;6.454;2022-09-09T02:13:03;0.47;;;0.45;;
73563;SDS011;61834;50.196;6.454;2022-09-09T02:15:47;0.65;;;0.40;;
73563;SDS011;61834;50.196;6.454;2022-09-09T02:18:34;1.13;;;0.40;;
73563;SDS011;61834;50.196;6.454;2022-09-09T02:21:04;0.50;;;0.40;;
73563;SDS011;61834;50.196;6.454;2022-09-09T02:23:32;1.00;;;0.70;;
73563;SDS011;61834;50.196;6.454;2022-09-09T02:26:00;0.98;;;0.43;;
73563;SDS011;61834;50.196;6.454;2022-09-09T02:28:28;0.75;;;0.40;;
73563;SDS011;61834;50.196;6.454;2022-09-09T02:30:56;0.30;;;0.30;;
73563;SDS011;61834;50.196;6.454;2022-09-09T02:33:42;1.00;;;0.35;;
73563;SDS011;61834;50.196;6.454;2022-09-09T02:36:12;0.50;;;0.50;;
73563;SDS011;61834;50.196;6.454;2022-09-09T02:38:43;0.52;;;0.30;;
73563;SDS011;61834;50.196;6.454;2022-09-09T02:41:16;0.63;;;0.47;;
73563;SDS011;61834;50.196;6.454;2022-09-09T02:43:43;1.20;;;0.60;;
73563;SDS011;61834;50.196;6.454;2022-09-09T02:48:51;0.25;;;0.25;;
73563;SDS011;61834;50.196;6.454;2022-09-09T02:51:54;0.60;;;0.50;;
73563;SDS011;61834;50.196;6.454;2022-09-09T02:54:35;0.30;;;0.30;;
73563;SDS011;61834;50.196;6.454;2022-09-09T02:57:10;0.40;;;0.40;;
73563;SDS011;61834;50.196;6.454;2022-09-09T02:59:39;0.30;;;0.30;;
73563;SDS011;61834;50.196;6.454;2022-09-09T03:02:05;0.40;;;0.30;;
73563;SDS011;61834;50.196;6.454;2022-09-09T03:04:32;0.55;;;0.40;;
73563;SDS011;61834;50.196;6.454;2022-09-09T03:06:58;0.52;;;0.40;;
73563;SDS011;61834;50.196;6.454;2022-09-09T03:09:25;2.05;;;0.55;;
73563;SDS011;61834;50.196;6.454;2022-09-09T03:11:55;0.43;;;0.30;;
73563;SDS011;61834;50.196;6.454;2022-09-09T03:14:21;0.88;;;0.50;;
73563;SDS011;61834;50.196;6.454;2022-09-09T03:16:50;0.30;;;0.30;;
73563;SDS011;61834;50.196;6.454;2022-09-09T03:19:17;0.60;;;0.40;;
73563;SDS011;61834;50.196;6.454;2022-09-09T03:21:44;1.23;;;0.50;;
73563;SDS011;61834;50.196;6.454;2022-09-09T03:24:13;0.45;;;0.40;;
73563;SDS011;61834;50.196;6.454;2022-09-09T03:26:40;0.40;;;0.40;;
73563;SDS011;61834;50.196;6.454;2022-09-09T03:29:10;0.90;;;0.47;;
73563;SDS011;61834;50.196;6.454;2022-09-09T03:31:39;0.50;;;0.50;;
73563;SDS011;61834;50.196;6.454;2022-09-09T03:34:05;0.35;;;0.30;;
73563;SDS011;61834;50.196;6.454;2022-09-09T03:36:32;0.47;;;0.40;;
73563;SDS011;61834;50.196;6.454;2022-09-09T03:38:58;0.28;;;0.28;;
73563;SDS011;61834;50.196;6.454;2022-09-09T03:41:26;0.85;;;0.40;;
73563;SDS011;61834;50.196;6.454;2022-09-09T03:43:53;0.85;;;0.50;;
73563;SDS011;61834;50.196;6.454;2022-09-09T03:46:20;0.75;;;0.40;;
73563;SDS011;61834;50.196;6.454;2022-09-09T03:48:47;0.60;;;0.40;;
73563;SDS011;61834;50.196;6.454;2022-09-09T03:51:13;0.40;;;0.40;;
73563;SDS011;61834;50.196;6.454;2022-09-09T03:53:40;0.57;;;0.40;;
73563;SDS011;61834;50.196;6.454;2022-09-09T03:56:06;0.60;;;0.40;;
73563;SDS011;61834;50.196;6.454;2022-09-09T03:58:32;0.93;;;0.40;;
73563;SDS011;61834;50.196;6.454;2022-09-09T04:03:31;0.35;;;0.25;;
73563;SDS011;61834;50.196;6.454;2022-09-09T04:05:58;0.77;;;0.40;;
73563;SDS011;61834;50.196;6.454;2022-09-09T04:08:27;0.40;;;0.40;;
73563;SDS011;61834;50.196;6.454;2022-09-09T04:10:53;0.57;;;0.40;;
73563;SDS011;61834;50.196;6.454;2022-09-09T04:13:22;0.40;;;0.30;;
73563;SDS011;61834;50.196;6.454;2022-09-09T04:15:53;0.43;;;0.35;;
73563;SDS011;61834;50.196;6.454;2022-09-09T04:18:21;0.68;;;0.45;;
73563;SDS011;61834;50.196;6.454;2022-09-09T04:20:48;0.63;;;0.40;;
73563;SDS011;61834;50.196;6.454;2022-09-09T04:23:16;0.40;;;0.35;;
73563;SDS011;61834;50.196;6.454;2022-09-09T04:25:47;0.47;;;0.40;;
73563;SDS011;61834;50.196;6.454;2022-09-09T04:28:14;0.82;;;0.50;;
73563;SDS011;61834;50.196;6.454;2022-09-09T04:30:42;0.63;;;0.40;;
73563;SDS011;61834;50.196;6.454;2022-09-09T04:33:09;0.60;;;0.30;;
73563;SDS011;61834;50.196;6.454;2022-09-09T04:35:35;0.50;;;0.40;;
73563;SDS011;61834;50.196;6.454;2022-09-09T04:38:01;0.50;;;0.30;;
73563;SDS011;61834;50.196;6.454;2022-09-09T04:40:31;0.60;;;0.40;;
73563;SDS011;61834;50.196;6.454;2022-09-09T04:42:58;0.68;;;0.30;;
73563;SDS011;61834;50.196;6.454;2022-09-09T04:45:24;0.35;;;0.35;;
73563;SDS011;61834;50.196;6.454;2022-09-09T04:47:52;2.15;;;0.47;;
73563;SDS011;61834;50.196;6.454;2022-09-09T04:50:19;0.30;;;0.30;;
73563;SDS011;61834;50.196;6.454;2022-09-09T04:52:46;0.60;;;0.32;;
73563;SDS011;61834;50.196;6.454;2022-09-09T04:55:12;0.55;;;0.40;;
73563;SDS011;61834;50.196;6.454;2022-09-09T04:57:40;0.70;;;0.50;;
73563;SDS011;61834;50.196;6.454;2022-09-09T05:00:10;0.30;;;0.30;;
73563;SDS011;61834;50.196;6.454;2022-09-09T05:02:38;0.80;;;0.40;;
73563;SDS011;61834;50.196;6.454;2022-09-09T05:05:05;0.55;;;0.40;;
73563;SDS011;61834;50.196;6.454;2022-09-09T05:07:32;0.47;;;0.30;;
73563;SDS011;61834;50.196;6.454;2022-09-09T05:09:58;0.40;;;0.40;;
73563;SDS011;61834;50.196;6.454;2022-09-09T05:12:24;0.50;;;0.30;;
73563;SDS011;61834;50.196;6.454;2022-09-09T05:14:54;0.40;;;0.40;;
73563;SDS011;61834;50.196;6.454;2022-09-09T05:17:20;0.73;;;0.40;;
73563;SDS011;61834;50.196;6.454;2022-09-09T05:19:46;0.40;;;0.35;;
73563;SDS011;61834;50.196;6.454;2022-09-09T05:22:13;0.43;;;0.40;;
73563;SDS011;61834;50.196;6.454;2022-09-09T05:24:44;0.50;;;0.40;;
73563;SDS011;61834;50.196;6.454;2022-09-09T05:27:09;0.70;;;0.40;;
73563;SDS011;61834;50.196;6.454;2022-09-09T05:29:38;0.70;;;0.40;;
73563;SDS011;61834;50.196;6.454;2022-09-09T05:32:06;0.85;;;0.38;;
73563;SDS011;61834;50.196;6.454;2022-09-09T05:34:35;0.68;;;0.40;;
73563;SDS011;61834;50.196;6.454;2022-09-09T05:37:02;0.40;;;0.40;;
73563;SDS011;61834;50.196;6.454;2022-09-09T05:39:30;0.30;;;0.30;;
73563;SDS011;61834;50.196;6.454;2022-09-09T05:41:57;0.40;;;0.30;;
73563;SDS011;61834;50.196;6.454;2022-09-09T05:44:23;0.55;;;0.40;;
73563;SDS011;61834;50.196;6.454;2022-09-09T05:46:52;0.93;;;0.40;;
73563;SDS011;61834;50.196;6.454;2022-09-09T05:49:24;0.40;;;0.40;;
73563;SDS011;61834;50.196;6.454;2022-09-09T05:51:50;0.40;;;0.40;;
73563;SDS011;61834;50.196;6.454;2022-09-09T05:54:18;0.30;;;0.30;;
73563;SDS011;61834;50.196;6.454;2022-09-09T05:56:47;0.38;;;0.30;;
73563;SDS011;61834;50.196;6.454;2022-09-09T05:59:16;0.30;;;0.30;;
73563;SDS011;61834;50.196;6.454;2022-09-09T06:01:41;0.40;;;0.32;;
73563;SDS011;61834;50.196;6.454;2022-09-09T06:04:13;0.57;;;0.40;;
73563;SDS011;61834;50.196;6.454;2022-09-09T06:06:39;0.70;;;0.30;;
73563;SDS011;61834;50.196;6.454;2022-09-09T06:09:12;0.70;;;0.40;;
73563;SDS011;61834;50.196;6.454;2022-09-09T06:11:40;0.30;;;0.30;;
73563;SDS011;61834;50.196;6.454;2022-09-09T06:14:06;0.68;;;0.40;;
73563;SDS011;61834;50.196;6.454;2022-09-09T06:16:33;0.50;;;0.40;;
73563;SDS011;61834;50.196;6.454;2022-09-09T06:18:59;0.30;;;0.30;;
73563;SDS011;61834;50.196;6.454;2022-09-09T06:21:28;0.32;;;0.32;;
73563;SDS011;61834;50.196;6.454;2022-09-09T06:23:57;0.35;;;0.30;;
73563;SDS011;61834;50.196;6.454;2022-09-09T06:26:23;0.40;;;0.32;;
73563;SDS011;61834;50.196;6.454;2022-09-09T06:29:00;0.30;;;0.30;;
73563;SDS011;61834;50.196;6.454;2022-09-09T06:31:29;0.80;;;0.50;;
73563;SDS011;61834;50.196;6.454;2022-09-09T06:34:00;0.30;;;0.30;;
73563;SDS011;61834;50.196;6.454;2022-09-09T06:36:31;0.70;;;0.38;;
73563;SDS011;61834;50.196;6.454;2022-09-09T06:38:58;0.40;;;0.40;;
73563;SDS011;61834;50.196;6.454;2022-09-09T06:41:25;0.40;;;0.40;;
73563;SDS011;61834;50.196;6.454;2022-09-09T06:43:53;0.52;;;0.38;;
73563;SDS011;61834;50.196;6.454;2022-09-09T06:46:28;0.30;;;0.30;;
73563;SDS011;61834;50.196;6.454;2022-09-09T06:48:56;0.52;;;0.32;;
73563;SDS011;61834;50.196;6.454;2022-09-09T06:51:25;0.28;;;0.28;;
73563;SDS011;61834;50.196;6.454;2022-09-09T06:53:55;0.47;;;0.47;;
73563;SDS011;61834;50.196;6.454;2022-09-09T06:56:24;0.40;;;0.35;;
73563;SDS011;61834;50.196;6.454;2022-09-09T06:58:57;0.40;;;0.30;;
73563;SDS011;61834;50.196;6.454;2022-09-09T07:01:28;0.30;;;0.30;;
73563;SDS011;61834;50.196;6.454;2022-09-09T07:03:59;0.60;;;0.30;;
73563;SDS011;61834;50.196;6.454;2022-09-09T07:06:26;0.30;;;0.30;;
73563;SDS011;61834;50.196;6.454;2022-09-09T07:08:59;0.30;;;0.30;;
73563;SDS011;61834;50.196;6.454;2022-09-09T07:11:28;0.30;;;0.30;;
73563;SDS011;61834;50.196;6.454;2022-09-09T07:13:57;0.32;;;0.30;;
73563;SDS011;61834;50.196;6.454;2022-09-09T07:16:24;0.47;;;0.38;;
73563;SDS011;61834;50.196;6.454;2022-09-09T07:18:51;0.40;;;0.30;;
73563;SDS011;61834;50.196;6.454;2022-09-09T07:21:18;0.60;;;0.40;;
73563;SDS011;61834;50.196;6.454;2022-09-09T07:23:44;0.38;;;0.38;;
73563;SDS011;61834;50.196;6.454;2022-09-09T07:26:12;0.30;;;0.30;;
73563;SDS011;61834;50.196;6.454;2022-09-09T07:28:40;0.50;;;0.40;;
73563;SDS011;61834;50.196;6.454;2022-09-09T07:31:07;0.57;;;0.30;;
73563;SDS011;61834;50.196;6.454;2022-09-09T07:33:40;0.57;;;0.45;;
73563;SDS011;61834;50.196;6.454;2022-09-09T07:36:07;0.45;;;0.30;;
73563;SDS011;61834;50.196;6.454;2022-09-09T07:38:38;0.52;;;0.40;;
73563;SDS011;61834;50.196;6.454;2022-09-09T07:41:05;0.60;;;0.30;;
73563;SDS011;61834;50.196;6.454;2022-09-09T07:43:37;0.30;;;0.30;;
73563;SDS011;61834;50.196;6.454;2022-09-09T07:46:05;0.30;;;0.30;;
73563;SDS011;61834;50.196;6.454;2022-09-09T07:48:31;0.57;;;0.30;;
73563;SDS011;61834;50.196;6.454;2022-09-09T07:51:19;1.15;;;0.50;;
73563;SDS011;61834;50.196;6.454;2022-09-09T07:53:48;13.00;;;1.50;;
73563;SDS011;61834;50.196;6.454;2022-09-09T07:56:17;9.25;;;1.50;;
73563;SDS011;61834;50.196;6.454;2022-09-09T07:58:46;11.88;;;2.25;;
73563;SDS011;61834;50.196;6.454;2022-09-09T08:01:14;19.88;;;1.85;;
73563;SDS011;61834;50.196;6.454;2022-09-09T08:03:43;14.73;;;1.50;;
73563;SDS011;61834;50.196;6.454;2022-09-09T08:06:10;10.35;;;1.77;;
73563;SDS011;61834;50.196;6.454;2022-09-09T08:08:37;9.38;;;1.85;;
73563;SDS011;61834;50.196;6.454;2022-09-09T08:11:05;12.30;;;1.75;;
73563;SDS011;61834;50.196;6.454;2022-09-09T08:13:35;6.63;;;1.38;;
73563;SDS011;61834;50.196;6.454;2022-09-09T08:16:20;6.72;;;1.02;;
73563;SDS011;61834;50.196;6.454;2022-09-09T08:18:50;9.10;;;1.52;;
73563;SDS011;61834;50.196;6.454;2022-09-09T08:21:18;6.35;;;1.40;;
73563;SDS011;61834;50.196;6.454;2022-09-09T08:23:50;3.38;;;1.02;;
73563;SDS011;61834;50.196;6.454;2022-09-09T08:26:18;3.92;;;1.42;;
73563;SDS011;61834;50.196;6.454;2022-09-09T08:28:48;3.97;;;1.20;;
73563;SDS011;61834;50.196;6.454;2022-09-09T08:31:17;5.60;;;1.25;;
73563;SDS011;61834;50.196;6.454;2022-09-09T08:33:44;6.03;;;1.55;;
73563;SDS011;61834;50.196;6.454;2022-09-09T08:36:14;7.07;;;1.50;;
73563;SDS011;61834;50.196;6.454;2022-09-09T08:38:52;4.43;;;1.52;;
73563;SDS011;61834;50.196;6.454;2022-09-09T08:47:15;7.97;;;1.33;;
73563;SDS011;61834;50.196;6.454;2022-09-09T08:52:28;7.55;;;1.63;;
73563;SDS011;61834;50.196;6.454;2022-09-09T08:55:12;5.90;;;1.42;;
73563;SDS011;61834;50.196;6.454;2022-09-09T08:57:49;4.85;;;1.50;;
73563;SDS011;61834;50.196;6.454;2022-09-09T09:00:19;5.13;;;1.75;;
73563;SDS011;61834;50.196;6.454;2022-09-09T09:05:37;4.50;;;1.20;;
73563;SDS011;61834;50.196;6.454;2022-09-09T09:08:20;6.10;;;1.42;;
73563;SDS011;61834;50.196;6.454;2022-09-09T09:10:58;5.13;;;1.30;;
73563;SDS011;61834;50.196;6.454;2022-09-09T09:19:11;6.82;;;1.70;;
73563;SDS011;61834;50.196;6.454;2022-09-09T09:24:30;4.10;;;1.27;;
73563;SDS011;61834;50.196;6.454;2022-09-09T09:27:14;4.80;;;1.27;;
73563;SDS011;61834;50.196;6.454;2022-09-09T09:29:48;5.97;;;1.50;;
73563;SDS011;61834;50.196;6.454;2022-09-09T09:32:16;4.40;;;1.48;;
73563;SDS011;61834;50.196;6.454;2022-09-09T09:34:51;2.42;;;1.05;;
73563;SDS011;61834;50.196;6.454;2022-09-09T09:37:31;3.08;;;1.05;;
73563;SDS011;61834;50.196;6.454;2022-09-09T09:40:11;6.68;;;1.48;;
73563;SDS011;61834;50.196;6.454;2022-09-09T09:42:54;3.72;;;1.17;;
73563;SDS011;61834;50.196;6.454;2022-09-09T09:47:58;3.90;;;1.35;;
73563;SDS011;61834;50.196;6.454;2022-09-09T09:50:25;3.65;;;1.20;;
73563;SDS011;61834;50.196;6.454;2022-09-09T09:52:56;4.45;;;1.40;;
73563;SDS011;61834;50.196;6.454;2022-09-09T09:55:28;3.47;;;1.30;;
73563;SDS011;61834;50.196;6.454;2022-09-09T09:58:06;5.57;;;1.85;;
73563;SDS011;61834;50.196;6.454;2022-09-09T10:03:22;4.07;;;1.35;;
73563;SDS011;61834;50.196;6.454;2022-09-09T10:05:56;3.00;;;1.10;;
73563;SDS011;61834;50.196;6.454;2022-09-09T10:08:26;5.63;;;1.35;;
73563;SDS011;61834;50.196;6.454;2022-09-09T10:10:57;4.40;;;1.30;;
73563;SDS011;61834;50.196;6.454;2022-09-09T10:13:29;3.92;;;1.33;;
73563;SDS011;61834;50.196;6.454;2022-09-09T10:19:03;3.78;;;1.30;;
73563;SDS011;61834;50.196;6.454;2022-09-09T10:21:44;3.50;;;1.33;;
73563;SDS011;61834;50.196;6.454;2022-09-09T10:26:58;4.13;;;2.03;;
73563;SDS011;61834;50.196;6.454;2022-09-09T10:29:33;6.03;;;1.75;;
73563;SDS011;61834;50.196;6.454;2022-09-09T10:34:56;3.75;;;1.40;;
73563;SDS011;61834;50.196;6.454;2022-09-09T10:42:43;3.95;;;1.50;;
73563;SDS011;61834;50.196;6.454;2022-09-09T10:53:43;5.28;;;1.40;;
73563;SDS011;61834;50.196;6.454;2022-09-09T10:56:18;6.18;;;2.03;;
73563;SDS011;61834;50.196;6.454;2022-09-09T10:58:53;5.88;;;1.60;;
73563;SDS011;61834;50.196;6.454;2022-09-09T11:04:16;4.10;;;1.30;;
73563;SDS011;61834;50.196;6.454;2022-09-09T11:06:47;3.28;;;1.30;;
73563;SDS011;61834;50.196;6.454;2022-09-09T11:09:18;5.22;;;1.17;;
73563;SDS011;61834;50.196;6.454;2022-09-09T11:11:56;5.43;;;1.30;;
73563;SDS011;61834;50.196;6.454;2022-09-09T11:14:43;3.13;;;1.55;;
73563;SDS011;61834;50.196;6.454;2022-09-09T11:17:29;3.55;;;1.42;;
73563;SDS011;61834;50.196;6.454;2022-09-09T11:20:02;3.67;;;1.42;;
73563;SDS011;61834;50.196;6.454;2022-09-09T11:22:34;2.95;;;1.40;;
73563;SDS011;61834;50.196;6.454;2022-09-09T11:30:57;4.10;;;1.35;;
73563;SDS011;61834;50.196;6.454;2022-09-09T11:38:56;2.70;;;1.33;;
73563;SDS011;61834;50.196;6.454;2022-09-09T11:41:33;2.97;;;1.17;;
73563;SDS011;61834;50.196;6.454;2022-09-09T11:44:08;4.13;;;1.67;;
73563;SDS011;61834;50.196;6.454;2022-09-09T11:46:37;4.00;;;1.30;;
73563;SDS011;61834;50.196;6.454;2022-09-09T11:49:04;4.05;;;1.50;;
73563;SDS011;61834;50.196;6.454;2022-09-09T11:51:32;3.78;;;1.92;;
73563;SDS011;61834;50.196;6.454;2022-09-09T11:53:59;5.03;;;1.33;;
73563;SDS011;61834;50.196;6.454;2022-09-09T11:56:34;6.38;;;1.20;;
73563;SDS011;61834;50.196;6.454;2022-09-09T11:59:21;2.22;;;1.10;;
73563;SDS011;61834;50.196;6.454;2022-09-09T12:01:50;4.95;;;1.75;;
73563;SDS011;61834;50.196;6.454;2022-09-09T12:07:03;3.55;;;1.45;;
73563;SDS011;61834;50.196;6.454;2022-09-09T12:12:36;4.88;;;1.10;;
73563;SDS011;61834;50.196;6.454;2022-09-09T12:17:52;3.47;;;1.00;;
73563;SDS011;61834;50.196;6.454;2022-09-09T12:20:35;2.50;;;1.00;;
73563;SDS011;61834;50.196;6.454;2022-09-09T12:33:32;3.00;;;1.00;;
73563;SDS011;61834;50.196;6.454;2022-09-09T12:36:00;2.00;;;0.82;;
73563;SDS011;61834;50.196;6.454;2022-09-09T12:38:32;2.63;;;1.10;;
73563;SDS011;61834;50.196;6.454;2022-09-09T12:41:01;1.98;;;0.90;;
73563;SDS011;61834;50.196;6.454;2022-09-09T12:43:27;3.67;;;1.30;;
73563;SDS011;61834;50.196;6.454;2022-09-09T12:45:57;2.28;;;1.10;;
73563;SDS011;61834;50.196;6.454;2022-09-09T12:48:36;2.85;;;1.10;;
73563;SDS011;61834;50.196;6.454;2022-09-09T12:51:06;2.20;;;0.90;;
73563;SDS011;61834;50.196;6.454;2022-09-09T12:53:42;5.63;;;1.75;;
73563;SDS011;61834;50.196;6.454;2022-09-09T12:56:08;1.63;;;1.10;;
73563;SDS011;61834;50.196;6.454;2022-09-09T12:58:45;3.92;;;1.23;;
73563;SDS011;61834;50.196;6.454;2022-09-09T13:01:27;2.00;;;1.02;;
73563;SDS011;61834;50.196;6.454;2022-09-09T13:03:54;1.52;;;0.90;;
73563;SDS011;61834;50.196;6.454;2022-09-09T13:08:49;2.63;;;1.08;;
73563;SDS011;61834;50.196;6.454;2022-09-09T13:11:17;1.98;;;0.80;;
73563;SDS011;61834;50.196;6.454;2022-09-09T13:13:51;2.53;;;0.90;;
73563;SDS011;61834;50.196;6.454;2022-09-09T13:16:20;3.00;;;1.20;;
73563;SDS011;61834;50.196;6.454;2022-09-09T13:18:59;1.83;;;0.80;;
73563;SDS011;61834;50.196;6.454;2022-09-09T13:21:38;2.42;;;0.90;;
73563;SDS011;61834;50.196;6.454;2022-09-09T13:24:21;1.65;;;1.00;;
73563;SDS011;61834;50.196;6.454;2022-09-09T13:26:54;3.08;;;1.10;;
73563;SDS011;61834;50.196;6.454;2022-09-09T13:29:21;2.92;;;1.15;;
73563;SDS011;61834;50.196;6.454;2022-09-09T13:31:53;2.75;;;0.98;;
73563;SDS011;61834;50.196;6.454;2022-09-09T13:34:30;1.33;;;0.65;;
73563;SDS011;61834;50.196;6.454;2022-09-09T13:37:04;1.42;;;0.80;;
73563;SDS011;61834;50.196;6.454;2022-09-09T13:39:34;2.13;;;1.00;;
73563;SDS011;61834;50.196;6.454;2022-09-09T13:42:02;4.57;;;1.17;;
73563;SDS011;61834;50.196;6.454;2022-09-09T13:44:31;2.25;;;0.90;;
73563;SDS011;61834;50.196;6.454;2022-09-09T13:47:03;1.58;;;0.60;;
73563;SDS011;61834;50.196;6.454;2022-09-09T13:49:30;1.20;;;0.70;;
73563;SDS011;61834;50.196;6.454;2022-09-09T13:52:31;1.77;;;0.90;;
73563;SDS011;61834;50.196;6.454;2022-09-09T13:57:20;1.90;;;0.90;;
73563;SDS011;61834;50.196;6.454;2022-09-09T13:59:48;2.10;;;0.88;;
73563;SDS011;61834;50.196;6.454;2022-09-09T14:02:14;1.52;;;0.80;;
73563;SDS011;61834;50.196;6.454;2022-09-09T14:04:41;1.80;;;0.88;;
73563;SDS011;61834;50.196;6.454;2022-09-09T14:07:13;1.10;;;0.70;;
73563;SDS011;61834;50.196;6.454;2022-09-09T14:12:08;1.50;;;0.80;;
73563;SDS011;61834;50.196;6.454;2022-09-09T14:14:36;2.55;;;1.10;;
73563;SDS011;61834;50.196;6.454;2022-09-09T14:17:01;1.45;;;0.85;;
73563;SDS011;61834;50.196;6.454;2022-09-09T14:19:27;1.70;;;1.05;;
73563;SDS011;61834;50.196;6.454;2022-09-09T14:21:52;3.80;;;0.95;;
73563;SDS011;61834;50.196;6.454;2022-09-09T14:24:17;2.13;;;1.00;;
73563;SDS011;61834;50.196;6.454;2022-09-09T14:26:43;2.28;;;0.70;;
73563;SDS011;61834;50.196;6.454;2022-09-09T14:29:08;2.58;;;0.93;;
73563;SDS011;61834;50.196;6.454;2022-09-09T14:31:33;2.08;;;0.90;;
73563;SDS011;61834;50.196;6.454;2022-09-09T14:33:59;1.90;;;0.77;;
73563;SDS011;61834;50.196;6.454;2022-09-09T14:36:24;1.23;;;0.70;;
73563;SDS011;61834;50.196;6.454;2022-09-09T14:38:50;1.17;;;0.70;;
73563;SDS011;61834;50.196;6.454;2022-09-09T14:41:17;1.70;;;0.90;;
73563;SDS011;61834;50.196;6.454;2022-09-09T14:43:44;1.30;;;0.50;;
73563;SDS011;61834;50.196;6.454;2022-09-09T14:46:16;1.38;;;0.63;;
73563;SDS011;61834;50.196;6.454;2022-09-09T14:48:42;1.20;;;0.68;;
73563;SDS011;61834;50.196;6.454;2022-09-09T14:51:09;2.00;;;0.90;;
73563;SDS011;61834;50.196;6.454;2022-09-09T14:53:38;1.25;;;0.68;;
73563;SDS011;61834;50.196;6.454;2022-09-09T14:56:07;1.55;;;0.60;;
73563;SDS011;61834;50.196;6.454;2022-09-09T14:58:36;2.58;;;0.85;;
73563;SDS011;61834;50.196;6.454;2022-09-09T15:01:06;2.15;;;0.90;;
73563;SDS011;61834;50.196;6.454;2022-09-09T15:03:40;1.42;;;0.80;;
73563;SDS011;61834;50.196;6.454;2022-09-09T15:06:14;1.30;;;0.70;;
73563;SDS011;61834;50.196;6.454;2022-09-09T15:08:40;1.58;;;0.68;;
73563;SDS011;61834;50.196;6.454;2022-09-09T15:11:07;2.03;;;0.85;;
73563;SDS011;61834;50.196;6.454;2022-09-09T15:13:34;1.40;;;0.50;;
73563;SDS011;61834;50.196;6.454;2022-09-09T15:16:09;1.55;;;0.70;;
73563;SDS011;61834;50.196;6.454;2022-09-09T15:18:39;1.70;;;0.70;;
73563;SDS011;61834;50.196;6.454;2022-09-09T15:21:10;0.63;;;0.57;;
73563;SDS011;61834;50.196;6.454;2022-09-09T15:23:37;1.58;;;0.70;;
73563;SDS011;61834;50.196;6.454;2022-09-09T15:26:03;1.52;;;0.73;;
73563;SDS011;61834;50.196;6.454;2022-09-09T15:28:30;0.88;;;0.50;;
73563;SDS011;61834;50.196;6.454;2022-09-09T15:30:58;2.10;;;0.85;;
73563;SDS011;61834;50.196;6.454;2022-09-09T15:33:24;1.48;;;0.90;;
73563;SDS011;61834;50.196;6.454;2022-09-09T15:35:50;1.58;;;0.85;;
73563;SDS011;61834;50.196;6.454;2022-09-09T15:38:16;3.50;;;0.70;;
73563;SDS011;61834;50.196;6.454;2022-09-09T15:40:42;2.42;;;0.90;;
73563;SDS011;61834;50.196;6.454;2022-09-09T15:43:08;1.50;;;0.73;;
73563;SDS011;61834;50.196;6.454;2022-09-09T15:45:35;0.93;;;0.60;;
73563;SDS011;61834;50.196;6.454;2022-09-09T15:48:02;1.33;;;0.70;;
73563;SDS011;61834;50.196;6.454;2022-09-09T15:50:28;1.55;;;0.70;;
73563;SDS011;61834;50.196;6.454;2022-09-09T15:52:56;1.60;;;0.73;;
73563;SDS011;61834;50.196;6.454;2022-09-09T15:55:22;2.50;;;0.80;;
73563;SDS011;61834;50.196;6.454;2022-09-09T15:57:49;2.25;;;0.60;;
73563;SDS011;61834;50.196;6.454;2022-09-09T16:00:14;1.75;;;0.80;;
73563;SDS011;61834;50.196;6.454;2022-09-09T16:02:40;1.48;;;0.70;;
73563;SDS011;61834;50.196;6.454;2022-09-09T16:05:05;1.40;;;0.70;;
73563;SDS011;61834;50.196;6.454;2022-09-09T16:07:31;1.90;;;0.77;;
73563;SDS011;61834;50.196;6.454;2022-09-09T16:09:57;1.02;;;0.75;;
73563;SDS011;61834;50.196;6.454;2022-09-09T16:12:22;1.48;;;0.63;;
73563;SDS011;61834;50.196;6.454;2022-09-09T16:14:47;1.65;;;0.82;;
73563;SDS011;61834;50.196;6.454;2022-09-09T16:17:13;1.85;;;0.90;;
73563;SDS011;61834;50.196;6.454;2022-09-09T16:19:40;1.38;;;0.80;;
73563;SDS011;61834;50.196;6.454;2022-09-09T16:22:05;0.65;;;0.63;;
73563;SDS011;61834;50.196;6.454;2022-09-09T16:24:31;1.58;;;0.88;;
73563;SDS011;61834;50.196;6.454;2022-09-09T16:26:57;2.15;;;0.80;;
73563;SDS011;61834;50.196;6.454;2022-09-09T16:29:22;2.47;;;0.90;;
73563;SDS011;61834;50.196;6.454;2022-09-09T16:31:49;0.88;;;0.60;;
73563;SDS011;61834;50.196;6.454;2022-09-09T16:34:15;1.75;;;0.70;;
73563;SDS011;61834;50.196;6.454;2022-09-09T16:36:42;2.58;;;1.17;;
73563;SDS011;61834;50.196;6.454;2022-09-09T16:39:10;1.13;;;0.70;;
73563;SDS011;61834;50.196;6.454;2022-09-09T16:41:37;2.30;;;1.15;;
73563;SDS011;61834;50.196;6.454;2022-09-09T16:44:06;2.00;;;0.82;;
73563;SDS011;61834;50.196;6.454;2022-09-09T16:46:34;1.48;;;0.80;;
73563;SDS011;61834;50.196;6.454;2022-09-09T16:49:01;1.67;;;0.98;;
73563;SDS011;61834;50.196;6.454;2022-09-09T16:51:32;1.48;;;1.05;;
73563;SDS011;61834;50.196;6.454;2022-09-09T16:54:03;1.75;;;0.95;;
73563;SDS011;61834;50.196;6.454;2022-09-09T16:56:32;2.15;;;0.90;;
73563;SDS011;61834;50.196;6.454;2022-09-09T16:59:02;2.50;;;0.90;;
73563;SDS011;61834;50.196;6.454;2022-09-09T17:01:31;1.48;;;1.15;;
73563;SDS011;61834;50.196;6.454;2022-09-09T17:03:59;2.38;;;0.95;;
73563;SDS011;61834;50.196;6.454;2022-09-09T17:06:26;2.10;;;0.80;;
73563;SDS011;61834;50.196;6.454;2022-09-09T17:08:59;1.98;;;0.90;;
73563;SDS011;61834;50.196;6.454;2022-09-09T17:11:27;2.08;;;1.00;;
73563;SDS011;61834;50.196;6.454;2022-09-09T17:13:53;1.30;;;0.90;;